createdAt,value
2022-11-21T07:34:00.483Z,99009.84
2022-11-21T07:36:03.585Z,99413.41
2022-11-21T07:38:05.904Z,99421.44
2022-11-21T07:40:08.434Z,99421.66
2022-11-21T07:42:10.954Z,99421.66
2022-11-21T07:44:13.227Z,99405.00
2022-11-21T07:46:15.483Z,99397.91
2022-11-21T07:48:17.999Z,99388.97
2022-11-21T07:50:20.256Z,99390.41
2022-11-21T07:52:22.575Z,99359.00
2022-11-21T07:54:25.111Z,99350.28
2022-11-21T07:56:27.389Z,99335.94
2022-11-21T07:58:29.621Z,99330.34
2022-11-21T08:00:33.860Z,99323.56
2022-11-21T08:02:36.364Z,99314.56
2022-11-21T08:04:38.838Z,99304.53
2022-11-21T08:06:41.046Z,99298.78
2022-11-21T08:08:43.590Z,99296.66
2022-11-21T08:10:47.069Z,99297.19
2022-11-21T08:12:49.371Z,99303.47
2022-11-21T08:14:51.845Z,99300.56
2022-11-21T08:16:54.139Z,99303.66
2022-11-21T08:18:56.678Z,99307.31
2022-11-21T08:21:02.597Z,99310.72
2022-11-21T08:23:06.161Z,99313.63
2022-11-21T08:25:09.858Z,99325.94
2022-11-21T08:27:12.439Z,99334.28
2022-11-21T09:31:08.725Z,99186.22
2022-11-21T09:33:13.661Z,99344.09
2022-11-21T09:35:16.019Z,99344.13
2022-11-21T09:37:18.296Z,99349.66
2022-11-21T09:39:21.702Z,99350.34
2022-11-21T09:41:48.889Z,99351.69
2022-11-21T09:44:03.942Z,99360.66
2022-11-21T09:46:13.047Z,99378.91
2022-11-21T09:48:27.917Z,99387.31
2022-11-21T09:50:39.015Z,99399.25
2022-11-21T09:52:56.777Z,99407.41
2022-11-21T09:55:04.483Z,99412.97
2022-11-21T09:57:06.699Z,99416.16
2022-11-21T09:59:25.693Z,99421.25
2022-11-21T10:01:29.792Z,99428.34
2022-11-21T10:03:41.013Z,99434.34
2022-11-21T10:05:51.807Z,99447.09
2022-11-21T10:07:59.915Z,99461.28
2022-11-21T10:10:21.135Z,99472.88
2022-11-21T10:12:58.752Z,99471.88
2022-11-21T10:15:29.100Z,99476.91
2022-11-21T10:18:09.339Z,99480.56
2022-11-21T10:20:37.361Z,99475.00
2022-11-21T10:22:57.354Z,99465.09
2022-11-21T10:25:12.626Z,99454.22
2022-11-21T10:27:40.687Z,99438.44
2022-11-21T10:29:50.645Z,99432.84
2022-11-21T10:31:57.464Z,99437.59
2022-11-21T10:34:02.749Z,99449.97
2022-11-21T10:36:36.778Z,99448.59
2022-11-21T10:38:43.152Z,99456.38
2022-11-21T10:40:49.162Z,99453.06
2022-11-21T10:42:54.860Z,99459.22
2022-11-21T10:45:19.922Z,99471.56
2022-11-21T10:47:32.063Z,99474.09
2022-11-21T10:49:35.192Z,99488.72
2022-11-21T10:51:44.196Z,99485.53
2022-11-21T10:54:07.803Z,99490.00
2022-11-21T10:56:13.501Z,99496.72
2022-11-21T10:58:19.508Z,99494.75
2022-11-21T11:00:24.750Z,99507.31
2022-11-21T11:02:27.962Z,99509.41
2022-11-21T11:04:37.655Z,99509.50
2022-11-21T11:06:47.689Z,99487.84
2022-11-21T11:08:54.560Z,99488.66
2022-11-21T11:11:25.590Z,99478.50
2022-11-21T11:13:50.843Z,99476.09
2022-11-21T11:16:01.648Z,99478.91
2022-11-21T11:18:09.667Z,99485.97
2022-11-21T11:20:31.338Z,99479.47
2022-11-21T11:22:33.914Z,99474.06
2022-11-21T11:24:36.215Z,99472.56
2022-11-21T11:26:59.772Z,99475.84
2022-11-21T11:29:14.443Z,99470.94
2022-11-21T11:31:16.904Z,99476.75
2022-11-21T11:33:31.086Z,99468.59
2022-11-21T11:35:35.942Z,99474.78
2022-11-21T11:37:41.326Z,99470.44
2022-11-21T11:39:52.969Z,99478.16
2022-11-21T11:42:17.215Z,99467.22
2022-11-21T11:44:50.537Z,99470.38
2022-11-21T11:47:24.820Z,99472.50
2022-11-21T11:49:54.624Z,99484.16
2022-11-21T11:52:03.974Z,99491.63
2022-11-21T11:54:18.496Z,99491.19
2022-11-21T11:56:33.695Z,99489.00
2022-11-21T11:58:49.425Z,99469.00
2022-11-21T12:01:04.082Z,99473.91
2022-11-21T12:03:59.336Z,99472.09
2022-11-21T12:06:12.481Z,99464.84
2022-11-21T12:11:12.729Z,99441.84
2022-11-21T12:13:19.040Z,99425.34
2022-11-21T12:15:48.961Z,99413.87
2022-11-21T12:18:15.535Z,99417.25
2022-11-21T12:20:22.922Z,99408.75
2022-11-21T12:22:25.262Z,99390.53
2022-11-21T12:24:27.566Z,99392.25
2022-11-21T12:27:02.654Z,99401.78
2022-11-21T12:29:15.492Z,99414.41
2022-11-21T12:32:02.319Z,99418.59
2022-11-21T12:34:13.974Z,99406.44
2022-11-21T12:36:35.229Z,99400.91
2022-11-21T12:38:55.451Z,99400.91
2022-11-21T12:41:45.987Z,99395.53
2022-11-21T12:44:18.761Z,99390.19
2022-11-21T12:46:31.961Z,99387.66
2022-11-21T12:48:55.800Z,99387.94
2022-11-21T12:51:27.918Z,99392.97
2022-11-21T12:54:07.660Z,99418.72
2022-11-21T12:56:19.345Z,99417.97
2022-11-21T12:58:32.764Z,99400.78
2022-11-21T13:01:16.756Z,99394.72
2022-11-21T13:03:33.480Z,99385.69
2022-11-21T13:05:40.723Z,99366.72
2022-11-21T13:07:44.968Z,99358.31
2022-11-21T13:09:51.494Z,99343.91
2022-11-21T13:12:09.554Z,99331.75
2022-11-21T13:14:11.690Z,99319.94
2022-11-21T13:16:36.877Z,99326.72
2022-11-21T13:18:48.252Z,99320.63
2022-11-21T13:20:52.072Z,99311.31
2022-11-21T13:22:57.145Z,99303.47
2022-11-21T13:25:01.593Z,99301.00
2022-11-21T13:27:03.886Z,99300.78
2022-11-21T13:29:11.707Z,99290.72
2022-11-21T13:31:29.481Z,99290.50
2022-11-21T13:33:34.534Z,99296.91
2022-11-21T13:35:52.345Z,99303.19
2022-11-21T13:38:12.909Z,99309.19
2022-11-21T13:40:30.596Z,99312.78
2022-11-21T13:43:31.982Z,99322.69
2022-11-21T13:45:47.164Z,99318.88
2022-11-21T13:47:59.117Z,99325.06
2022-11-21T13:50:19.809Z,99327.03
2022-11-21T13:52:27.592Z,99320.72
2022-11-21T13:54:41.291Z,99331.69
2022-11-21T13:57:02.359Z,99335.44
2022-11-21T13:59:26.497Z,99332.75
2022-11-21T14:02:15.282Z,99347.31
2022-11-21T14:04:37.735Z,99332.72
2022-11-21T14:06:44.672Z,99339.66
2022-11-21T14:09:06.841Z,99331.19
2022-11-21T14:11:35.075Z,99334.22
2022-11-21T14:13:38.952Z,99325.41
2022-11-21T14:15:58.116Z,99320.56
2022-11-21T14:18:01.393Z,99311.38
2022-11-21T14:20:15.708Z,99301.53
2022-11-21T14:22:45.448Z,99299.19
2022-11-21T14:24:48.472Z,99282.16
2022-11-21T14:26:53.170Z,99286.63
2022-11-21T14:29:18.187Z,99273.47
2022-11-21T14:31:21.093Z,99264.44
2022-11-21T14:33:34.137Z,99262.63
2022-11-21T14:35:36.449Z,99242.19
2022-11-21T14:37:42.319Z,99245.47
2022-11-21T14:39:45.519Z,99251.09
2022-11-21T14:42:11.617Z,99238.09
2022-11-21T14:44:16.510Z,99230.75
2022-11-21T14:46:21.778Z,99232.63
2022-11-21T14:48:29.009Z,99239.53
2022-11-21T14:50:34.684Z,99227.72
2022-11-21T14:52:36.974Z,99226.81
2022-11-21T14:57:27.911Z,99214.22
2022-11-21T14:59:34.256Z,99213.25
2022-11-21T15:01:36.535Z,99215.78
2022-11-21T15:03:39.208Z,99211.91
2022-11-21T15:06:01.478Z,99216.34
2022-11-21T15:08:33.567Z,99205.75
2022-11-21T15:10:33.874Z,99207.00
2022-11-21T15:12:44.512Z,99220.00
2022-11-21T15:15:19.084Z,99212.88
2022-11-21T15:17:23.168Z,99210.22
2022-11-21T15:19:28.864Z,99207.75
2022-11-21T15:21:31.449Z,99212.69
2022-11-21T15:23:36.757Z,99212.62
2022-11-21T15:25:47.337Z,99216.16
2022-11-21T15:27:58.982Z,99211.19
2022-11-21T15:30:07.237Z,99228.88
2022-11-21T15:34:36.355Z,99215.50
2022-11-21T15:36:39.368Z,99222.81
2022-11-21T15:38:47.769Z,99219.22
2022-11-21T15:41:01.852Z,99220.00
2022-11-21T15:43:04.636Z,99215.56
2022-11-21T15:45:20.384Z,99215.72
2022-11-21T15:47:22.890Z,99222.16
2022-11-21T15:54:20.706Z,99228.97
2022-11-21T15:56:23.331Z,99225.59
2022-11-21T15:57:11.086Z,99232.91
2022-11-21T15:57:14.028Z,99226.81
2022-11-21T15:57:14.215Z,99223.59
2022-11-21T15:58:25.643Z,99225.81
2022-11-21T16:00:27.864Z,99224.53
2022-11-21T16:02:30.392Z,99224.88
2022-11-21T16:04:32.640Z,99228.25
2022-11-21T16:06:35.483Z,99227.91
2022-11-21T16:08:38.287Z,99222.38
2022-11-21T16:10:40.491Z,99221.00
2022-11-21T16:12:42.710Z,99214.97
2022-11-21T16:14:45.325Z,99209.81
2022-11-21T16:16:47.924Z,99194.22
2022-11-21T16:18:50.477Z,99194.09
2022-11-21T16:20:52.930Z,99212.19
2022-11-21T16:22:55.535Z,99208.22
2022-11-21T16:24:57.771Z,99204.19
2022-11-21T16:27:02.435Z,99212.19
2022-11-21T16:29:05.793Z,99210.81
2022-11-21T16:31:08.111Z,99208.28
2022-11-21T16:33:10.585Z,99206.72
2022-11-21T16:35:12.855Z,99209.72
2022-11-21T16:37:15.032Z,99209.72
2022-11-21T16:39:18.562Z,99202.56
2022-11-21T16:41:23.053Z,99197.44
2022-11-21T16:43:26.036Z,99198.38
2022-11-21T16:45:29.944Z,99203.34
2022-11-21T16:47:32.440Z,99205.44
2022-11-21T16:49:35.022Z,99216.47
2022-11-21T16:51:37.935Z,99206.72
2022-11-21T16:53:41.632Z,99210.59
2022-11-21T16:55:44.268Z,99212.53
2022-11-21T16:57:46.789Z,99214.47
2022-11-21T16:59:49.078Z,99207.56
2022-11-21T17:01:52.030Z,99212.91
2022-11-21T17:03:55.599Z,99213.19
2022-11-21T17:06:00.610Z,99201.37
2022-11-21T17:08:03.662Z,99211.53
2022-11-21T17:10:07.274Z,99208.75
2022-11-21T17:12:10.052Z,99209.97
2022-11-21T17:14:14.204Z,99210.94
2022-11-21T17:16:19.091Z,99211.09
2022-11-21T17:18:21.331Z,99220.34
2022-11-21T17:20:23.960Z,99233.47
2022-11-21T17:22:27.076Z,99222.22
2022-11-21T17:24:29.985Z,99228.31
2022-11-21T17:26:36.030Z,99229.19
2022-11-21T17:28:42.412Z,99223.63
2022-11-21T17:30:47.492Z,99228.44
2022-11-21T17:32:49.687Z,99233.13
2022-11-21T17:34:52.398Z,99232.22
2022-11-21T17:36:54.931Z,99240.63
2022-11-21T17:38:57.210Z,99240.63
2022-11-21T17:41:04.303Z,99241.84
2022-11-21T17:43:07.023Z,99239.97
2022-11-21T17:45:09.953Z,99243.78
2022-11-21T17:47:12.732Z,99245.38
2022-11-21T17:49:15.315Z,99253.31
2022-11-21T17:51:21.803Z,99244.84
2022-11-21T17:53:24.801Z,99244.97
2022-11-21T17:55:27.466Z,99247.81
2022-11-21T17:57:30.027Z,99247.69
2022-11-21T17:59:35.050Z,99248.47
2022-11-21T18:01:37.639Z,99254.03
2022-11-21T18:03:40.812Z,99251.34
2022-11-21T18:05:47.437Z,99261.59
2022-11-21T18:07:53.037Z,99256.56
2022-11-21T18:10:09.214Z,99264.38
2022-11-21T18:12:19.391Z,99265.09
2022-11-21T18:14:22.334Z,99264.19
2022-11-21T18:16:28.001Z,99264.84
2022-11-21T18:18:31.777Z,99260.59
2022-11-21T18:20:34.582Z,99256.81
2022-11-21T18:22:37.469Z,99254.22
2022-11-21T18:24:40.049Z,99266.03
2022-11-21T18:26:42.647Z,99258.47
2022-11-21T18:28:45.276Z,99259.78
2022-11-21T18:30:47.802Z,99256.28
2022-11-21T18:32:50.407Z,99258.19
2022-11-21T18:34:53.331Z,99254.87
2022-11-21T18:36:55.987Z,99251.84
2022-11-21T18:39:05.870Z,99252.09
2022-11-21T18:41:12.915Z,99246.87
2022-11-21T18:43:15.480Z,99246.09
2022-11-21T18:45:18.159Z,99245.09
2022-11-21T18:47:23.442Z,99241.59
2022-11-21T18:49:26.306Z,99244.75
2022-11-21T18:51:31.198Z,99240.09
2022-11-21T18:53:34.273Z,99245.28
2022-11-21T18:55:39.397Z,99241.88
2022-11-21T18:57:48.013Z,99244.88
2022-11-21T18:59:50.717Z,99240.81
2022-11-21T19:01:53.454Z,99241.75
2022-11-21T19:03:56.983Z,99233.34
2022-11-21T19:06:00.093Z,99232.19
2022-11-21T19:08:02.777Z,99227.09
2022-11-21T19:10:35.543Z,99222.69
2022-11-21T19:12:29.467Z,99221.47
2022-11-21T19:14:32.178Z,99219.66
2022-11-21T19:16:34.792Z,99224.37
2022-11-21T19:18:41.164Z,99216.94
2022-11-21T19:20:45.470Z,99219.50
2022-11-21T19:22:48.251Z,99223.31
2022-11-21T19:24:51.287Z,99230.75
2022-11-21T19:26:54.037Z,99231.47
2022-11-21T19:28:58.279Z,99232.31
2022-11-21T19:31:03.412Z,99238.94
2022-11-21T19:33:05.838Z,99243.16
2022-11-21T19:35:09.092Z,99246.03
2022-11-21T19:37:12.074Z,99248.88
2022-11-21T19:39:14.838Z,99243.56
2022-11-21T19:41:21.231Z,99248.56
2022-11-21T19:43:24.330Z,99254.22
2022-11-21T19:45:27.070Z,99260.06
2022-11-21T19:47:29.913Z,99265.22
2022-11-21T19:49:32.994Z,99259.28
2022-11-21T19:51:38.454Z,99267.06
2022-11-21T19:53:41.258Z,99273.03
2022-11-21T19:55:44.412Z,99279.78
2022-11-21T19:57:47.178Z,99279.84
2022-11-21T19:59:50.341Z,99278.47
2022-11-21T20:01:53.484Z,99277.69
2022-11-21T20:04:02.128Z,99278.72
2022-11-21T20:06:07.611Z,99283.16
2022-11-21T20:08:17.468Z,99288.31
2022-11-21T20:10:21.319Z,99286.38
2022-11-21T20:12:24.009Z,99288.78
2022-11-21T20:14:26.782Z,99289.19
2022-11-21T20:16:35.845Z,99292.44
2022-11-21T20:18:39.481Z,99302.00
2022-11-21T20:20:42.259Z,99300.34
2022-11-21T20:22:45.838Z,99300.13
2022-11-21T20:24:51.725Z,99302.31
2022-11-21T20:26:55.281Z,99307.09
2022-11-21T20:28:58.912Z,99295.81
2022-11-21T20:31:12.609Z,99296.38
2022-11-21T20:33:15.317Z,99298.47
2022-11-21T20:35:19.349Z,99295.75
2022-11-21T20:37:22.329Z,99301.41
2022-11-21T20:39:31.002Z,99305.81
2022-11-21T20:41:36.315Z,99301.66
2022-11-21T20:44:24.602Z,99299.00
2022-11-21T20:46:15.491Z,99304.06
2022-11-21T20:48:22.081Z,99300.22
2022-11-21T20:50:51.634Z,99300.59
2022-11-21T20:55:10.399Z,99308.13
2022-11-21T20:57:15.171Z,99309.31
2022-11-21T20:59:18.304Z,99308.25
2022-11-21T21:01:21.205Z,99307.94
2022-11-21T21:03:23.930Z,99301.47
2022-11-21T21:05:26.566Z,99305.34
2022-11-21T21:07:29.232Z,99290.59
2022-11-21T21:09:32.075Z,99284.53
2022-11-21T21:11:51.594Z,99280.12
2022-11-21T21:13:55.684Z,99276.87
2022-11-21T21:16:06.643Z,99265.62
2022-11-21T21:18:09.331Z,99266.16
2022-11-21T21:20:11.909Z,99257.88
2022-11-21T21:22:17.844Z,99251.19
2022-11-21T21:24:20.345Z,99245.31
2022-11-21T21:26:29.017Z,99245.75
2022-11-21T21:28:31.250Z,99237.75
2022-11-21T21:30:33.729Z,99231.13
2022-11-21T21:32:37.341Z,99226.09
2022-11-21T21:34:39.538Z,99219.44
2022-11-21T21:36:41.749Z,99224.16
2022-11-21T21:38:45.648Z,99224.75
2022-11-21T21:40:47.882Z,99219.62
2022-11-21T21:42:50.059Z,99218.41
2022-11-21T21:44:52.694Z,99213.44
2022-11-21T21:46:54.859Z,99216.28
2022-11-21T21:48:57.960Z,99221.13
2022-11-21T21:51:21.780Z,99212.41
2022-11-21T21:53:24.010Z,99222.66
2022-11-21T21:55:26.288Z,99215.16
2022-11-21T21:57:28.791Z,99230.41
2022-11-21T21:59:32.986Z,99224.59
2022-11-21T22:01:35.248Z,99237.09
2022-11-21T22:03:38.442Z,99230.09
2022-11-21T22:05:40.643Z,99222.41
2022-11-21T22:07:42.944Z,99229.03
2022-11-21T22:09:45.464Z,99218.56
2022-11-21T22:11:47.727Z,99229.59
2022-11-21T22:13:58.650Z,99227.00
2022-11-21T22:16:02.747Z,99236.00
2022-11-21T22:18:05.012Z,99240.38
2022-11-21T22:20:07.654Z,99232.88
2022-11-21T22:22:10.120Z,99236.56
2022-11-21T22:24:25.855Z,99247.13
2022-11-21T22:26:29.356Z,99248.56
2022-11-21T22:28:31.899Z,99247.75
2022-11-21T22:30:34.171Z,99252.84
2022-11-21T22:32:36.802Z,99259.75
2022-11-21T22:34:39.345Z,99264.66
2022-11-21T22:36:41.962Z,99264.50
2022-11-21T22:38:44.724Z,99273.38
2022-11-21T22:40:47.335Z,99270.00
2022-11-21T22:42:49.557Z,99268.38
2022-11-21T22:44:51.832Z,99272.09
2022-11-21T22:46:54.312Z,99270.44
2022-11-21T22:48:56.841Z,99261.13
2022-11-21T22:50:59.113Z,99263.34
2022-11-21T22:53:01.556Z,99268.53
2022-11-21T22:55:03.996Z,99265.50
2022-11-21T22:57:06.188Z,99262.63
2022-11-21T22:59:08.730Z,99256.34
2022-11-21T23:01:22.209Z,99251.72
2022-11-21T23:03:24.568Z,99252.59
2022-11-21T23:05:27.094Z,99256.03
2022-11-21T23:07:30.580Z,99249.22
2022-11-21T23:09:32.826Z,99252.38
2022-11-21T23:11:40.663Z,99254.16
2022-11-21T23:13:45.729Z,99248.75
2022-11-21T23:15:47.952Z,99240.59
2022-11-21T23:17:53.342Z,99234.41
2022-11-21T23:19:55.576Z,99229.63
2022-11-21T23:21:57.774Z,99224.94
2022-11-21T23:24:00.254Z,99229.53
2022-11-21T23:26:03.775Z,99228.41
2022-11-21T23:28:05.949Z,99222.34
2022-11-21T23:30:09.088Z,99219.28
